sensor_id;sensor_type;location;lat;lon;timestamp;temperature;humidity
30174;DHT22;16985;50.814;8.530;2023-12-20T00:02:13;5.50;99.90
30174;DHT22;16985;50.814;8.530;2023-12-20T00:04:53;5.50;99.90
30174;DHT22;16985;50.814;8.530;2023-12-20T00:07:24;5.50;99.90
30174;DHT22;16985;50.814;8.530;2023-12-20T00:09:51;5.50;99.90
30174;DHT22;16985;50.814;8.530;2023-12-20T00:12:19;5.50;99.90
30174;DHT22;16985;50.814;8.530;2023-12-20T00:14:46;5.50;99.90
30174;DHT22;16985;50.814;8.530;2023-12-20T00:17:12;5.60;99.90
30174;DHT22;16985;50.814;8.530;2023-12-20T00:19:40;5.60;99.90
30174;DHT22;16985;50.814;8.530;2023-12-20T00:22:07;5.60;99.90
30174;DHT22;16985;50.814;8.530;2023-12-20T00:24:34;5.60;99.90
30174;DHT22;16985;50.814;8.530;2023-12-20T00:27:00;5.60;99.90
30174;DHT22;16985;50.814;8.530;2023-12-20T00:29:27;5.60;99.90
30174;DHT22;16985;50.814;8.530;2023-12-20T00:31:54;5.60;99.90
30174;DHT22;16985;50.814;8.530;2023-12-20T00:34:21;5.60;99.90
30174;DHT22;16985;50.814;8.530;2023-12-20T00:36:48;5.60;99.90
30174;DHT22;16985;50.814;8.530;2023-12-20T00:39:14;5.60;99.90
30174;DHT22;16985;50.814;8.530;2023-12-20T00:41:40;5.60;99.90
30174;DHT22;16985;50.814;8.530;2023-12-20T00:44:07;5.60;99.90
30174;DHT22;16985;50.814;8.530;2023-12-20T00:46:34;5.60;99.90
30174;DHT22;16985;50.814;8.530;2023-12-20T00:49:01;5.70;99.90
30174;DHT22;16985;50.814;8.530;2023-12-20T00:51:29;5.70;99.90
30174;DHT22;16985;50.814;8.530;2023-12-20T00:53:57;5.60;99.90
30174;DHT22;16985;50.814;8.530;2023-12-20T00:56:27;5.70;99.90
30174;DHT22;16985;50.814;8.530;2023-12-20T00:58:58;5.70;99.90
30174;DHT22;16985;50.814;8.530;2023-12-20T01:01:28;5.70;99.90
30174;DHT22;16985;50.814;8.530;2023-12-20T01:04:04;5.70;99.90
30174;DHT22;16985;50.814;8.530;2023-12-20T01:06:37;5.70;99.90
30174;DHT22;16985;50.814;8.530;2023-12-20T01:09:11;5.70;99.90
30174;DHT22;16985;50.814;8.530;2023-12-20T01:11:40;5.70;99.90
30174;DHT22;16985;50.814;8.530;2023-12-20T01:14:08;5.70;99.90
30174;DHT22;16985;50.814;8.530;2023-12-20T01:16:41;5.70;99.90
30174;DHT22;16985;50.814;8.530;2023-12-20T01:19:11;5.70;99.90
30174;DHT22;16985;50.814;8.530;2023-12-20T01:21:41;5.70;99.90
30174;DHT22;16985;50.814;8.530;2023-12-20T01:24:09;5.70;99.90
30174;DHT22;16985;50.814;8.530;2023-12-20T01:26:40;5.70;99.90
30174;DHT22;16985;50.814;8.530;2023-12-20T01:29:10;5.70;99.90
30174;DHT22;16985;50.814;8.530;2023-12-20T01:31:38;5.70;99.90
30174;DHT22;16985;50.814;8.530;2023-12-20T01:34:08;5.70;99.90
30174;DHT22;16985;50.814;8.530;2023-12-20T01:36:37;5.70;99.90
30174;DHT22;16985;50.814;8.530;2023-12-20T01:39:11;5.70;99.90
30174;DHT22;16985;50.814;8.530;2023-12-20T01:41:41;5.70;99.90
30174;DHT22;16985;50.814;8.530;2023-12-20T01:44:13;5.70;99.90
30174;DHT22;16985;50.814;8.530;2023-12-20T01:46:45;5.70;99.90
30174;DHT22;16985;50.814;8.530;2023-12-20T01:49:13;5.70;99.90
30174;DHT22;16985;50.814;8.530;2023-12-20T01:51:43;5.70;99.90
30174;DHT22;16985;50.814;8.530;2023-12-20T01:54:15;5.70;99.90
30174;DHT22;16985;50.814;8.530;2023-12-20T01:56:46;5.70;99.90
30174;DHT22;16985;50.814;8.530;2023-12-20T01:59:20;5.70;99.90
30174;DHT22;16985;50.814;8.530;2023-12-20T02:01:51;5.70;99.90
30174;DHT22;16985;50.814;8.530;2023-12-20T02:04:21;5.70;99.90
30174;DHT22;16985;50.814;8.530;2023-12-20T02:06:53;5.70;99.90
30174;DHT22;16985;50.814;8.530;2023-12-20T02:09:25;5.70;99.90
30174;DHT22;16985;50.814;8.530;2023-12-20T02:11:56;5.70;99.90
30174;DHT22;16985;50.814;8.530;2023-12-20T02:14:27;5.80;99.90
30174;DHT22;16985;50.814;8.530;2023-12-20T02:17:00;5.80;99.90
30174;DHT22;16985;50.814;8.530;2023-12-20T02:19:26;5.70;99.90
30174;DHT22;16985;50.814;8.530;2023-12-20T02:22:27;5.80;99.90
30174;DHT22;16985;50.814;8.530;2023-12-20T02:24:55;5.80;99.90
30174;DHT22;16985;50.814;8.530;2023-12-20T02:27:25;5.80;99.90
30174;DHT22;16985;50.814;8.530;2023-12-20T02:29:53;5.80;99.90
30174;DHT22;16985;50.814;8.530;2023-12-20T02:32:26;5.90;99.90
30174;DHT22;16985;50.814;8.530;2023-12-20T02:34:58;5.90;99.90
30174;DHT22;16985;50.814;8.530;2023-12-20T02:37:32;5.90;99.90
30174;DHT22;16985;50.814;8.530;2023-12-20T02:40:02;5.90;99.90
30174;DHT22;16985;50.814;8.530;2023-12-20T02:42:33;5.90;99.90
30174;DHT22;16985;50.814;8.530;2023-12-20T02:45:03;5.90;99.90
30174;DHT22;16985;50.814;8.530;2023-12-20T02:47:35;5.90;99.90
30174;DHT22;16985;50.814;8.530;2023-12-20T02:50:08;5.90;99.90
30174;DHT22;16985;50.814;8.530;2023-12-20T02:52:34;5.80;99.90
30174;DHT22;16985;50.814;8.530;2023-12-20T02:55:00;5.90;99.90
30174;DHT22;16985;50.814;8.530;2023-12-20T02:57:26;5.90;99.90
30174;DHT22;16985;50.814;8.530;2023-12-20T02:59:52;5.80;99.90
30174;DHT22;16985;50.814;8.530;2023-12-20T03:02:18;5.90;99.90
30174;DHT22;16985;50.814;8.530;2023-12-20T03:04:44;5.80;99.90
30174;DHT22;16985;50.814;8.530;2023-12-20T03:07:10;5.80;99.90
30174;DHT22;16985;50.814;8.530;2023-12-20T03:09:37;5.70;99.90
30174;DHT22;16985;50.814;8.530;2023-12-20T03:12:04;5.70;99.90
30174;DHT22;16985;50.814;8.530;2023-12-20T03:14:31;5.70;99.90
30174;DHT22;16985;50.814;8.530;2023-12-20T03:16:57;5.70;99.90
30174;DHT22;16985;50.814;8.530;2023-12-20T03:19:22;5.60;99.90
30174;DHT22;16985;50.814;8.530;2023-12-20T03:21:48;5.60;99.90
30174;DHT22;16985;50.814;8.530;2023-12-20T03:24:14;5.50;99.90
30174;DHT22;16985;50.814;8.530;2023-12-20T03:26:40;5.50;99.90
30174;DHT22;16985;50.814;8.530;2023-12-20T03:29:06;5.40;99.90
30174;DHT22;16985;50.814;8.530;2023-12-20T03:31:32;5.40;99.90
30174;DHT22;16985;50.814;8.530;2023-12-20T03:33:58;5.40;99.90
30174;DHT22;16985;50.814;8.530;2023-12-20T03:36:24;5.30;99.90
30174;DHT22;16985;50.814;8.530;2023-12-20T03:38:50;5.30;99.90
30174;DHT22;16985;50.814;8.530;2023-12-20T03:41:16;5.20;99.90
30174;DHT22;16985;50.814;8.530;2023-12-20T03:43:42;5.20;99.90
30174;DHT22;16985;50.814;8.530;2023-12-20T03:46:09;5.20;99.90
30174;DHT22;16985;50.814;8.530;2023-12-20T03:48:35;5.20;99.90
30174;DHT22;16985;50.814;8.530;2023-12-20T03:51:01;5.20;99.90
30174;DHT22;16985;50.814;8.530;2023-12-20T03:53:27;5.10;99.90
30174;DHT22;16985;50.814;8.530;2023-12-20T03:55:53;5.10;99.90
30174;DHT22;16985;50.814;8.530;2023-12-20T03:58:21;5.10;99.90
30174;DHT22;16985;50.814;8.530;2023-12-20T04:00:47;5.10;99.90
30174;DHT22;16985;50.814;8.530;2023-12-20T04:03:13;5.10;99.90
30174;DHT22;16985;50.814;8.530;2023-12-20T04:05:40;5.10;99.90
30174;DHT22;16985;50.814;8.530;2023-12-20T04:08:07;5.10;99.90
30174;DHT22;16985;50.814;8.530;2023-12-20T04:10:35;5.10;99.90
30174;DHT22;16985;50.814;8.530;2023-12-20T04:13:04;5.10;99.90
30174;DHT22;16985;50.814;8.530;2023-12-20T04:15:30;5.10;99.90
30174;DHT22;16985;50.814;8.530;2023-12-20T04:17:56;5.00;99.90
30174;DHT22;16985;50.814;8.530;2023-12-20T04:20:22;5.10;99.90
30174;DHT22;16985;50.814;8.530;2023-12-20T04:22:48;5.00;99.90
30174;DHT22;16985;50.814;8.530;2023-12-20T04:25:14;5.00;99.90
30174;DHT22;16985;50.814;8.530;2023-12-20T04:27:40;5.00;99.90
30174;DHT22;16985;50.814;8.530;2023-12-20T04:30:07;5.00;99.90
30174;DHT22;16985;50.814;8.530;2023-12-20T04:32:34;5.00;99.90
30174;DHT22;16985;50.814;8.530;2023-12-20T04:35:00;5.10;99.90
30174;DHT22;16985;50.814;8.530;2023-12-20T04:37:26;5.10;99.90
30174;DHT22;16985;50.814;8.530;2023-12-20T04:39:55;5.10;99.90
30174;DHT22;16985;50.814;8.530;2023-12-20T04:42:21;5.00;99.90
30174;DHT22;16985;50.814;8.530;2023-12-20T04:44:47;5.00;99.90
30174;DHT22;16985;50.814;8.530;2023-12-20T04:47:14;5.10;99.90
30174;DHT22;16985;50.814;8.530;2023-12-20T04:49:40;5.10;99.90
30174;DHT22;16985;50.814;8.530;2023-12-20T04:52:06;5.00;99.90
30174;DHT22;16985;50.814;8.530;2023-12-20T04:54:32;5.00;99.90
30174;DHT22;16985;50.814;8.530;2023-12-20T04:56:58;5.10;99.90
30174;DHT22;16985;50.814;8.530;2023-12-20T04:59:25;5.00;99.90
30174;DHT22;16985;50.814;8.530;2023-12-20T05:01:51;5.00;99.90
30174;DHT22;16985;50.814;8.530;2023-12-20T05:04:17;5.00;99.90
30174;DHT22;16985;50.814;8.530;2023-12-20T05:06:44;5.00;99.90
30174;DHT22;16985;50.814;8.530;2023-12-20T05:09:13;5.00;99.90
30174;DHT22;16985;50.814;8.530;2023-12-20T05:11:39;5.00;99.90
30174;DHT22;16985;50.814;8.530;2023-12-20T05:14:05;5.00;99.90
30174;DHT22;16985;50.814;8.530;2023-12-20T05:16:31;5.00;99.90
30174;DHT22;16985;50.814;8.530;2023-12-20T05:18:57;5.00;99.90
30174;DHT22;16985;50.814;8.530;2023-12-20T05:21:25;5.00;99.90
30174;DHT22;16985;50.814;8.530;2023-12-20T05:23:51;5.00;99.90
30174;DHT22;16985;50.814;8.530;2023-12-20T05:26:17;5.00;99.90
30174;DHT22;16985;50.814;8.530;2023-12-20T05:28:43;5.00;99.90
30174;DHT22;16985;50.814;8.530;2023-12-20T05:31:09;4.90;99.90
30174;DHT22;16985;50.814;8.530;2023-12-20T05:33:35;4.90;99.90
30174;DHT22;16985;50.814;8.530;2023-12-20T05:36:01;4.90;99.90
30174;DHT22;16985;50.814;8.530;2023-12-20T05:38:27;4.90;99.90
30174;DHT22;16985;50.814;8.530;2023-12-20T05:40:54;4.90;99.90
30174;DHT22;16985;50.814;8.530;2023-12-20T05:43:23;4.90;99.90
30174;DHT22;16985;50.814;8.530;2023-12-20T05:45:52;4.90;99.90
30174;DHT22;16985;50.814;8.530;2023-12-20T05:48:20;4.80;99.90
30174;DHT22;16985;50.814;8.530;2023-12-20T05:50:45;4.80;99.90
30174;DHT22;16985;50.814;8.530;2023-12-20T05:53:11;4.80;99.90
30174;DHT22;16985;50.814;8.530;2023-12-20T05:55:38;4.80;99.90
30174;DHT22;16985;50.814;8.530;2023-12-20T05:58:04;4.80;99.90
30174;DHT22;16985;50.814;8.530;2023-12-20T06:00:30;4.80;99.90
30174;DHT22;16985;50.814;8.530;2023-12-20T06:02:56;4.70;99.90
30174;DHT22;16985;50.814;8.530;2023-12-20T06:05:22;4.70;99.90
30174;DHT22;16985;50.814;8.530;2023-12-20T06:07:48;4.70;99.90
30174;DHT22;16985;50.814;8.530;2023-12-20T06:10:16;4.60;99.90
30174;DHT22;16985;50.814;8.530;2023-12-20T06:12:42;4.60;99.90
30174;DHT22;16985;50.814;8.530;2023-12-20T06:15:08;4.70;99.90
30174;DHT22;16985;50.814;8.530;2023-12-20T06:17:35;4.70;99.90
30174;DHT22;16985;50.814;8.530;2023-12-20T06:20:01;4.70;99.90
30174;DHT22;16985;50.814;8.530;2023-12-20T06:22:28;4.60;99.90
30174;DHT22;16985;50.814;8.530;2023-12-20T06:24:54;4.60;99.90
30174;DHT22;16985;50.814;8.530;2023-12-20T06:27:23;4.60;99.90
30174;DHT22;16985;50.814;8.530;2023-12-20T06:29:54;4.50;99.90
30174;DHT22;16985;50.814;8.530;2023-12-20T06:32:21;4.60;99.90
30174;DHT22;16985;50.814;8.530;2023-12-20T06:34:51;4.50;99.90
30174;DHT22;16985;50.814;8.530;2023-12-20T06:37:17;4.50;99.90
30174;DHT22;16985;50.814;8.530;2023-12-20T06:39:43;4.50;99.90
30174;DHT22;16985;50.814;8.530;2023-12-20T06:42:09;4.50;99.90
30174;DHT22;16985;50.814;8.530;2023-12-20T06:44:35;4.50;99.90
30174;DHT22;16985;50.814;8.530;2023-12-20T06:47:01;4.50;99.90
30174;DHT22;16985;50.814;8.530;2023-12-20T06:49:27;4.50;99.90
30174;DHT22;16985;50.814;8.530;2023-12-20T06:51:53;4.50;99.90
30174;DHT22;16985;50.814;8.530;2023-12-20T06:54:24;4.50;99.90
30174;DHT22;16985;50.814;8.530;2023-12-20T06:56:56;4.50;99.90
30174;DHT22;16985;50.814;8.530;2023-12-20T06:59:22;4.50;99.90
30174;DHT22;16985;50.814;8.530;2023-12-20T07:01:49;4.60;99.90
30174;DHT22;16985;50.814;8.530;2023-12-20T07:04:16;4.50;99.90
30174;DHT22;16985;50.814;8.530;2023-12-20T07:06:46;4.50;99.90
30174;DHT22;16985;50.814;8.530;2023-12-20T07:09:14;4.50;99.90
30174;DHT22;16985;50.814;8.530;2023-12-20T07:11:40;4.50;99.90
30174;DHT22;16985;50.814;8.530;2023-12-20T07:14:07;4.50;99.90
30174;DHT22;16985;50.814;8.530;2023-12-20T07:16:33;4.60;99.90
30174;DHT22;16985;50.814;8.530;2023-12-20T07:19:01;4.60;99.90
30174;DHT22;16985;50.814;8.530;2023-12-20T07:21:27;4.60;99.90
30174;DHT22;16985;50.814;8.530;2023-12-20T07:23:53;4.60;99.90
30174;DHT22;16985;50.814;8.530;2023-12-20T07:26:19;4.60;99.90
30174;DHT22;16985;50.814;8.530;2023-12-20T07:28:47;4.60;99.90
30174;DHT22;16985;50.814;8.530;2023-12-20T07:31:17;4.60;99.90
30174;DHT22;16985;50.814;8.530;2023-12-20T07:33:45;4.60;99.90
30174;DHT22;16985;50.814;8.530;2023-12-20T07:36:12;4.60;99.90
30174;DHT22;16985;50.814;8.530;2023-12-20T07:38:39;4.60;99.90
30174;DHT22;16985;50.814;8.530;2023-12-20T07:41:04;4.70;99.90
30174;DHT22;16985;50.814;8.530;2023-12-20T07:43:30;4.60;99.90
30174;DHT22;16985;50.814;8.530;2023-12-20T07:46:05;4.60;99.90
30174;DHT22;16985;50.814;8.530;2023-12-20T07:48:38;4.70;99.90
30174;DHT22;16985;50.814;8.530;2023-12-20T07:51:04;4.70;99.90
30174;DHT22;16985;50.814;8.530;2023-12-20T07:53:39;4.70;99.90
30174;DHT22;16985;50.814;8.530;2023-12-20T07:56:16;4.70;99.90
30174;DHT22;16985;50.814;8.530;2023-12-20T07:58:43;4.70;99.90
30174;DHT22;16985;50.814;8.530;2023-12-20T08:01:10;4.70;99.90
30174;DHT22;16985;50.814;8.530;2023-12-20T08:03:38;4.70;99.90
30174;DHT22;16985;50.814;8.530;2023-12-20T08:06:04;4.70;99.90
30174;DHT22;16985;50.814;8.530;2023-12-20T08:08:31;4.70;99.90
30174;DHT22;16985;50.814;8.530;2023-12-20T08:10:57;4.80;99.90
30174;DHT22;16985;50.814;8.530;2023-12-20T08:13:25;4.80;99.90
30174;DHT22;16985;50.814;8.530;2023-12-20T08:15:52;4.80;99.90
30174;DHT22;16985;50.814;8.530;2023-12-20T08:18:19;4.80;99.90
30174;DHT22;16985;50.814;8.530;2023-12-20T08:20:44;4.80;99.90
30174;DHT22;16985;50.814;8.530;2023-12-20T08:23:10;4.80;99.90
30174;DHT22;16985;50.814;8.530;2023-12-20T08:25:36;4.80;99.90
30174;DHT22;16985;50.814;8.530;2023-12-20T08:28:03;4.80;99.90
30174;DHT22;16985;50.814;8.530;2023-12-20T08:30:37;4.80;99.90
30174;DHT22;16985;50.814;8.530;2023-12-20T08:33:03;4.90;99.90
30174;DHT22;16985;50.814;8.530;2023-12-20T08:35:30;4.90;99.90
30174;DHT22;16985;50.814;8.530;2023-12-20T08:38:00;4.90;99.90
30174;DHT22;16985;50.814;8.530;2023-12-20T08:40:28;4.90;99.90
30174;DHT22;16985;50.814;8.530;2023-12-20T08:42:55;4.90;99.90
30174;DHT22;16985;50.814;8.530;2023-12-20T08:45:21;4.90;99.90
30174;DHT22;16985;50.814;8.530;2023-12-20T08:47:48;4.90;99.90
30174;DHT22;16985;50.814;8.530;2023-12-20T08:50:15;4.90;99.90
30174;DHT22;16985;50.814;8.530;2023-12-20T08:52:41;5.00;99.90
30174;DHT22;16985;50.814;8.530;2023-12-20T08:55:08;4.90;99.90
30174;DHT22;16985;50.814;8.530;2023-12-20T08:57:37;5.00;99.90
30174;DHT22;16985;50.814;8.530;2023-12-20T09:00:04;5.00;99.90
30174;DHT22;16985;50.814;8.530;2023-12-20T09:02:33;5.10;99.90
30174;DHT22;16985;50.814;8.530;2023-12-20T09:05:02;5.00;99.90
30174;DHT22;16985;50.814;8.530;2023-12-20T09:07:29;5.00;99.90
30174;DHT22;16985;50.814;8.530;2023-12-20T09:09:58;5.00;99.90
30174;DHT22;16985;50.814;8.530;2023-12-20T09:12:24;5.10;99.90
30174;DHT22;16985;50.814;8.530;2023-12-20T09:14:51;5.10;99.90
30174;DHT22;16985;50.814;8.530;2023-12-20T09:17:18;5.10;99.90
30174;DHT22;16985;50.814;8.530;2023-12-20T09:19:45;5.10;99.90
30174;DHT22;16985;50.814;8.530;2023-12-20T09:22:14;5.10;99.90
30174;DHT22;16985;50.814;8.530;2023-12-20T09:24:42;5.10;99.90
30174;DHT22;16985;50.814;8.530;2023-12-20T09:27:22;5.10;99.90
30174;DHT22;16985;50.814;8.530;2023-12-20T09:29:54;5.20;99.90
30174;DHT22;16985;50.814;8.530;2023-12-20T09:32:22;5.10;99.90
30174;DHT22;16985;50.814;8.530;2023-12-20T09:34:51;5.10;99.90
30174;DHT22;16985;50.814;8.530;2023-12-20T09:37:28;5.10;99.90
30174;DHT22;16985;50.814;8.530;2023-12-20T09:39:57;5.10;99.90
30174;DHT22;16985;50.814;8.530;2023-12-20T09:45:21;5.20;99.90
30174;DHT22;16985;50.814;8.530;2023-12-20T09:47:55;5.20;99.90
30174;DHT22;16985;50.814;8.530;2023-12-20T09:50:24;5.20;99.90
30174;DHT22;16985;50.814;8.530;2023-12-20T09:52:55;5.20;99.90
30174;DHT22;16985;50.814;8.530;2023-12-20T09:55:33;5.20;99.90
30174;DHT22;16985;50.814;8.530;2023-12-20T09:58:09;5.20;99.90
30174;DHT22;16985;50.814;8.530;2023-12-20T10:00:41;5.10;99.90
30174;DHT22;16985;50.814;8.530;2023-12-20T10:03:12;5.10;99.90
30174;DHT22;16985;50.814;8.530;2023-12-20T10:05:44;5.10;99.90
30174;DHT22;16985;50.814;8.530;2023-12-20T10:08:15;5.10;99.90
30174;DHT22;16985;50.814;8.530;2023-12-20T10:10:50;5.10;99.90
30174;DHT22;16985;50.814;8.530;2023-12-20T10:13:22;5.20;99.90
30174;DHT22;16985;50.814;8.530;2023-12-20T10:15:56;5.20;99.90
30174;DHT22;16985;50.814;8.530;2023-12-20T10:18:30;5.20;99.90
30174;DHT22;16985;50.814;8.530;2023-12-20T10:20:59;5.20;99.90
30174;DHT22;16985;50.814;8.530;2023-12-20T10:23:37;5.20;99.90
30174;DHT22;16985;50.814;8.530;2023-12-20T10:26:06;5.20;99.90
30174;DHT22;16985;50.814;8.530;2023-12-20T10:28:35;5.20;99.90
30174;DHT22;16985;50.814;8.530;2023-12-20T10:31:03;5.20;99.90
30174;DHT22;16985;50.814;8.530;2023-12-20T10:33:31;5.20;99.90
30174;DHT22;16985;50.814;8.530;2023-12-20T10:35:58;5.20;99.90
30174;DHT22;16985;50.814;8.530;2023-12-20T10:38:27;5.20;99.90
30174;DHT22;16985;50.814;8.530;2023-12-20T10:40:58;5.20;99.90
30174;DHT22;16985;50.814;8.530;2023-12-20T10:43:30;5.30;99.90
30174;DHT22;16985;50.814;8.530;2023-12-20T10:45:59;5.20;99.90
30174;DHT22;16985;50.814;8.530;2023-12-20T10:48:29;5.20;99.90
30174;DHT22;16985;50.814;8.530;2023-12-20T10:51:06;5.20;99.90
30174;DHT22;16985;50.814;8.530;2023-12-20T10:53:36;5.30;99.90
30174;DHT22;16985;50.814;8.530;2023-12-20T10:56:04;5.20;99.90
30174;DHT22;16985;50.814;8.530;2023-12-20T10:58:33;5.20;99.90
30174;DHT22;16985;50.814;8.530;2023-12-20T11:01:02;5.20;99.90
30174;DHT22;16985;50.814;8.530;2023-12-20T11:03:34;5.20;99.90
30174;DHT22;16985;50.814;8.530;2023-12-20T11:06:09;5.20;99.90
30174;DHT22;16985;50.814;8.530;2023-12-20T11:08:53;5.30;99.90
30174;DHT22;16985;50.814;8.530;2023-12-20T11:14:31;5.20;99.90
30174;DHT22;16985;50.814;8.530;2023-12-20T11:17:13;5.30;99.90
30174;DHT22;16985;50.814;8.530;2023-12-20T11:22:26;5.20;99.90
30174;DHT22;16985;50.814;8.530;2023-12-20T11:25:08;5.30;99.90
30174;DHT22;16985;50.814;8.530;2023-12-20T11:27:42;5.20;99.90
30174;DHT22;16985;50.814;8.530;2023-12-20T11:30:12;5.30;99.90
30174;DHT22;16985;50.814;8.530;2023-12-20T11:32:42;5.30;99.90
30174;DHT22;16985;50.814;8.530;2023-12-20T11:35:17;5.30;99.90
30174;DHT22;16985;50.814;8.530;2023-12-20T11:37:48;5.30;99.90
30174;DHT22;16985;50.814;8.530;2023-12-20T11:40:17;5.30;99.90
30174;DHT22;16985;50.814;8.530;2023-12-20T11:42:49;5.30;99.90
30174;DHT22;16985;50.814;8.530;2023-12-20T11:45:24;5.30;99.90
30174;DHT22;16985;50.814;8.530;2023-12-20T11:47:57;5.40;99.90
30174;DHT22;16985;50.814;8.530;2023-12-20T11:50:26;5.40;99.90
30174;DHT22;16985;50.814;8.530;2023-12-20T11:53:06;5.40;99.90
30174;DHT22;16985;50.814;8.530;2023-12-20T11:55:35;5.40;99.90
30174;DHT22;16985;50.814;8.530;2023-12-20T11:58:05;5.40;99.90
30174;DHT22;16985;50.814;8.530;2023-12-20T12:00:41;5.40;99.90
30174;DHT22;16985;50.814;8.530;2023-12-20T12:03:14;5.50;99.90
30174;DHT22;16985;50.814;8.530;2023-12-20T12:05:41;5.50;99.90
30174;DHT22;16985;50.814;8.530;2023-12-20T12:08:21;5.50;99.90
30174;DHT22;16985;50.814;8.530;2023-12-20T12:10:48;5.50;99.90
30174;DHT22;16985;50.814;8.530;2023-12-20T12:13:19;5.50;99.90
30174;DHT22;16985;50.814;8.530;2023-12-20T12:15:52;5.50;99.90
30174;DHT22;16985;50.814;8.530;2023-12-20T12:18:26;5.60;99.90
30174;DHT22;16985;50.814;8.530;2023-12-20T12:21:01;5.60;99.90
30174;DHT22;16985;50.814;8.530;2023-12-20T12:23:32;5.60;99.90
30174;DHT22;16985;50.814;8.530;2023-12-20T12:26:09;5.60;99.90
30174;DHT22;16985;50.814;8.530;2023-12-20T12:28:42;5.60;99.90
30174;DHT22;16985;50.814;8.530;2023-12-20T12:31:15;5.60;99.90
30174;DHT22;16985;50.814;8.530;2023-12-20T12:33:46;5.60;99.90
30174;DHT22;16985;50.814;8.530;2023-12-20T12:36:12;5.60;99.90
30174;DHT22;16985;50.814;8.530;2023-12-20T12:38:44;5.60;99.90
30174;DHT22;16985;50.814;8.530;2023-12-20T12:41:15;5.60;99.90
30174;DHT22;16985;50.814;8.530;2023-12-20T12:43:42;5.60;99.90
30174;DHT22;16985;50.814;8.530;2023-12-20T12:46:09;5.60;99.90
30174;DHT22;16985;50.814;8.530;2023-12-20T12:48:41;5.60;99.90
30174;DHT22;16985;50.814;8.530;2023-12-20T12:51:13;5.60;99.90
30174;DHT22;16985;50.814;8.530;2023-12-20T12:53:39;5.70;99.90
30174;DHT22;16985;50.814;8.530;2023-12-20T12:56:09;5.70;99.90
30174;DHT22;16985;50.814;8.530;2023-12-20T12:58:39;5.70;99.90
30174;DHT22;16985;50.814;8.530;2023-12-20T13:01:10;5.70;99.90
30174;DHT22;16985;50.814;8.530;2023-12-20T13:03:39;5.70;99.90
30174;DHT22;16985;50.814;8.530;2023-12-20T13:06:07;5.70;99.90
30174;DHT22;16985;50.814;8.530;2023-12-20T13:08:39;5.70;99.90
30174;DHT22;16985;50.814;8.530;2023-12-20T13:11:06;5.70;99.90
30174;DHT22;16985;50.814;8.530;2023-12-20T13:13:36;5.70;99.90
30174;DHT22;16985;50.814;8.530;2023-12-20T13:16:07;5.70;99.90
30174;DHT22;16985;50.814;8.530;2023-12-20T13:18:47;5.70;99.90
30174;DHT22;16985;50.814;8.530;2023-12-20T13:21:21;5.70;99.90
30174;DHT22;16985;50.814;8.530;2023-12-20T13:23:53;5.70;99.90
30174;DHT22;16985;50.814;8.530;2023-12-20T13:26:35;5.70;99.90
30174;DHT22;16985;50.814;8.530;2023-12-20T13:29:15;5.70;99.90
30174;DHT22;16985;50.814;8.530;2023-12-20T13:31:46;5.70;99.90
30174;DHT22;16985;50.814;8.530;2023-12-20T13:34:17;5.60;99.90
30174;DHT22;16985;50.814;8.530;2023-12-20T13:36:52;5.70;99.90
30174;DHT22;16985;50.814;8.530;2023-12-20T13:39:24;5.70;99.90
30174;DHT22;16985;50.814;8.530;2023-12-20T13:41:59;5.70;99.90
30174;DHT22;16985;50.814;8.530;2023-12-20T13:44:31;5.70;99.90
30174;DHT22;16985;50.814;8.530;2023-12-20T13:47:01;5.70;99.90
30174;DHT22;16985;50.814;8.530;2023-12-20T13:49:32;5.70;99.90
30174;DHT22;16985;50.814;8.530;2023-12-20T13:52:10;5.70;99.90
30174;DHT22;16985;50.814;8.530;2023-12-20T13:54:41;5.70;99.90
30174;DHT22;16985;50.814;8.530;2023-12-20T13:57:12;5.70;99.90
30174;DHT22;16985;50.814;8.530;2023-12-20T13:59:42;5.70;99.90
30174;DHT22;16985;50.814;8.530;2023-12-20T14:02:11;5.70;99.90
30174;DHT22;16985;50.814;8.530;2023-12-20T14:04:45;5.70;99.90
30174;DHT22;16985;50.814;8.530;2023-12-20T14:07:16;5.70;99.90
30174;DHT22;16985;50.814;8.530;2023-12-20T14:09:52;5.70;99.90
30174;DHT22;16985;50.814;8.530;2023-12-20T14:12:20;5.60;99.90
30174;DHT22;16985;50.814;8.530;2023-12-20T14:14:49;5.70;99.90
30174;DHT22;16985;50.814;8.530;2023-12-20T14:17:17;5.70;99.90
30174;DHT22;16985;50.814;8.530;2023-12-20T14:19:47;5.70;99.90
30174;DHT22;16985;50.814;8.530;2023-12-20T14:22:15;5.70;99.90
30174;DHT22;16985;50.814;8.530;2023-12-20T14:24:46;5.70;99.90
30174;DHT22;16985;50.814;8.530;2023-12-20T14:27:14;5.70;99.90
30174;DHT22;16985;50.814;8.530;2023-12-20T14:29:41;5.70;99.90
30174;DHT22;16985;50.814;8.530;2023-12-20T14:32:08;5.60;99.90
30174;DHT22;16985;50.814;8.530;2023-12-20T14:34:36;5.70;99.90
30174;DHT22;16985;50.814;8.530;2023-12-20T14:37:04;5.60;99.90
30174;DHT22;16985;50.814;8.530;2023-12-20T14:39:32;5.60;99.90
30174;DHT22;16985;50.814;8.530;2023-12-20T14:42:03;5.60;99.90
30174;DHT22;16985;50.814;8.530;2023-12-20T14:44:35;5.60;99.90
30174;DHT22;16985;50.814;8.530;2023-12-20T14:47:05;5.60;99.90
30174;DHT22;16985;50.814;8.530;2023-12-20T14:49:32;5.60;99.90
30174;DHT22;16985;50.814;8.530;2023-12-20T14:52:09;5.60;99.90
30174;DHT22;16985;50.814;8.530;2023-12-20T14:54:37;5.60;99.90
30174;DHT22;16985;50.814;8.530;2023-12-20T14:57:03;5.60;99.90
30174;DHT22;16985;50.814;8.530;2023-12-20T14:59:30;5.60;99.90
30174;DHT22;16985;50.814;8.530;2023-12-20T15:01:59;5.60;99.90
30174;DHT22;16985;50.814;8.530;2023-12-20T15:04:34;5.80;99.90
30174;DHT22;16985;50.814;8.530;2023-12-20T15:07:04;5.60;99.90
30174;DHT22;16985;50.814;8.530;2023-12-20T15:09:35;5.70;99.90
30174;DHT22;16985;50.814;8.530;2023-12-20T15:12:16;5.60;99.90
30174;DHT22;16985;50.814;8.530;2023-12-20T15:14:54;5.60;99.90
30174;DHT22;16985;50.814;8.530;2023-12-20T15:17:30;5.60;99.90
30174;DHT22;16985;50.814;8.530;2023-12-20T15:20:07;5.60;99.90
30174;DHT22;16985;50.814;8.530;2023-12-20T15:22:43;5.60;99.90
30174;DHT22;16985;50.814;8.530;2023-12-20T15:25:27;5.60;99.90
30174;DHT22;16985;50.814;8.530;2023-12-20T15:28:00;5.60;99.90
30174;DHT22;16985;50.814;8.530;2023-12-20T15:30:35;5.60;99.90
30174;DHT22;16985;50.814;8.530;2023-12-20T15:33:12;5.60;99.90
30174;DHT22;16985;50.814;8.530;2023-12-20T15:35:46;5.60;99.90
30174;DHT22;16985;50.814;8.530;2023-12-20T15:38:17;5.60;99.90
30174;DHT22;16985;50.814;8.530;2023-12-20T15:40:48;5.60;99.90
30174;DHT22;16985;50.814;8.530;2023-12-20T15:43:30;5.60;99.90
30174;DHT22;16985;50.814;8.530;2023-12-20T15:46:09;5.60;99.90
30174;DHT22;16985;50.814;8.530;2023-12-20T15:48:38;5.60;99.90
30174;DHT22;16985;50.814;8.530;2023-12-20T15:51:13;5.60;99.90
30174;DHT22;16985;50.814;8.530;2023-12-20T15:53:48;5.60;99.90
30174;DHT22;16985;50.814;8.530;2023-12-20T15:56:17;5.60;99.90
30174;DHT22;16985;50.814;8.530;2023-12-20T15:58:45;5.60;99.90
30174;DHT22;16985;50.814;8.530;2023-12-20T16:01:14;5.60;99.90
30174;DHT22;16985;50.814;8.530;2023-12-20T16:03:40;5.60;99.90
30174;DHT22;16985;50.814;8.530;2023-12-20T16:06:09;5.60;99.90
30174;DHT22;16985;50.814;8.530;2023-12-20T16:08:39;5.60;99.90